sensor_id;sensor_type;location;lat;lon;timestamp;temperature;humidity
59282;DHT22;45054;52.062;10.010;2023-05-29T00:02:13;14.60;99.90
59282;DHT22;45054;52.062;10.010;2023-05-29T00:04:39;14.50;99.90
59282;DHT22;45054;52.062;10.010;2023-05-29T00:07:05;14.50;99.90
59282;DHT22;45054;52.062;10.010;2023-05-29T00:09:31;14.50;99.90
59282;DHT22;45054;52.062;10.010;2023-05-29T00:11:56;14.40;99.90
59282;DHT22;45054;52.062;10.010;2023-05-29T00:14:22;14.40;99.90
59282;DHT22;45054;52.062;10.010;2023-05-29T00:16:48;14.40;99.90
59282;DHT22;45054;52.062;10.010;2023-05-29T00:19:13;14.40;99.90
59282;DHT22;45054;52.062;10.010;2023-05-29T00:21:39;14.30;99.90
59282;DHT22;45054;52.062;10.010;2023-05-29T00:24:05;14.30;99.90
59282;DHT22;45054;52.062;10.010;2023-05-29T00:26:31;14.30;99.90
59282;DHT22;45054;52.062;10.010;2023-05-29T00:28:56;14.20;99.90
59282;DHT22;45054;52.062;10.010;2023-05-29T00:31:22;14.20;99.90
59282;DHT22;45054;52.062;10.010;2023-05-29T00:33:47;14.10;99.90
59282;DHT22;45054;52.062;10.010;2023-05-29T00:36:13;14.10;99.90
59282;DHT22;45054;52.062;10.010;2023-05-29T00:38:38;14.10;99.90
59282;DHT22;45054;52.062;10.010;2023-05-29T00:41:05;14.10;99.90
59282;DHT22;45054;52.062;10.010;2023-05-29T00:43:31;14.00;99.90
59282;DHT22;45054;52.062;10.010;2023-05-29T00:45:56;14.00;99.90
59282;DHT22;45054;52.062;10.010;2023-05-29T00:48:22;13.90;99.90
59282;DHT22;45054;52.062;10.010;2023-05-29T00:50:47;13.90;99.90
59282;DHT22;45054;52.062;10.010;2023-05-29T00:53:13;13.70;99.90
59282;DHT22;45054;52.062;10.010;2023-05-29T00:55:39;13.70;99.90
59282;DHT22;45054;52.062;10.010;2023-05-29T00:58:05;13.60;99.90
59282;DHT22;45054;52.062;10.010;2023-05-29T01:00:31;13.70;99.90
59282;DHT22;45054;52.062;10.010;2023-05-29T01:02:57;13.60;99.90
59282;DHT22;45054;52.062;10.010;2023-05-29T01:05:22;13.60;99.90
59282;DHT22;45054;52.062;10.010;2023-05-29T01:07:48;13.40;99.90
59282;DHT22;45054;52.062;10.010;2023-05-29T01:10:13;13.50;99.90
59282;DHT22;45054;52.062;10.010;2023-05-29T01:12:40;13.40;99.90
59282;DHT22;45054;52.062;10.010;2023-05-29T01:15:14;13.40;99.90
59282;DHT22;45054;52.062;10.010;2023-05-29T01:17:46;13.40;99.90
59282;DHT22;45054;52.062;10.010;2023-05-29T01:20:15;13.30;99.90
59282;DHT22;45054;52.062;10.010;2023-05-29T01:22:58;13.20;99.90
59282;DHT22;45054;52.062;10.010;2023-05-29T01:25:30;13.20;99.90
59282;DHT22;45054;52.062;10.010;2023-05-29T01:27:59;13.10;99.90
59282;DHT22;45054;52.062;10.010;2023-05-29T01:30:26;13.10;99.90
59282;DHT22;45054;52.062;10.010;2023-05-29T01:32:52;13.10;99.90
59282;DHT22;45054;52.062;10.010;2023-05-29T01:35:18;13.10;99.90
59282;DHT22;45054;52.062;10.010;2023-05-29T01:37:44;13.00;99.90
59282;DHT22;45054;52.062;10.010;2023-05-29T01:40:09;13.00;99.90
59282;DHT22;45054;52.062;10.010;2023-05-29T01:42:35;12.90;99.90
59282;DHT22;45054;52.062;10.010;2023-05-29T01:45:02;12.90;99.90
59282;DHT22;45054;52.062;10.010;2023-05-29T01:47:27;12.70;99.90
59282;DHT22;45054;52.062;10.010;2023-05-29T01:49:53;12.70;99.90
59282;DHT22;45054;52.062;10.010;2023-05-29T01:52:19;12.60;99.90
59282;DHT22;45054;52.062;10.010;2023-05-29T01:54:45;12.60;99.90
59282;DHT22;45054;52.062;10.010;2023-05-29T01:57:10;12.50;99.90
59282;DHT22;45054;52.062;10.010;2023-05-29T01:59:37;12.50;99.90
59282;DHT22;45054;52.062;10.010;2023-05-29T02:02:06;12.60;99.90
59282;DHT22;45054;52.062;10.010;2023-05-29T02:04:32;12.40;99.90
59282;DHT22;45054;52.062;10.010;2023-05-29T02:06:57;12.30;99.90
59282;DHT22;45054;52.062;10.010;2023-05-29T02:09:23;12.30;99.90
59282;DHT22;45054;52.062;10.010;2023-05-29T02:11:48;12.30;99.90
59282;DHT22;45054;52.062;10.010;2023-05-29T02:14:13;12.30;99.90
59282;DHT22;45054;52.062;10.010;2023-05-29T02:16:39;12.20;99.90
59282;DHT22;45054;52.062;10.010;2023-05-29T02:19:06;12.30;99.90
59282;DHT22;45054;52.062;10.010;2023-05-29T02:21:31;12.20;99.90
59282;DHT22;45054;52.062;10.010;2023-05-29T02:23:57;12.20;99.90
59282;DHT22;45054;52.062;10.010;2023-05-29T02:26:22;12.20;99.90
59282;DHT22;45054;52.062;10.010;2023-05-29T02:28:48;12.10;99.90
59282;DHT22;45054;52.062;10.010;2023-05-29T02:31:13;12.10;99.90
59282;DHT22;45054;52.062;10.010;2023-05-29T02:33:38;12.10;99.90
59282;DHT22;45054;52.062;10.010;2023-05-29T02:36:05;12.10;99.90
59282;DHT22;45054;52.062;10.010;2023-05-29T02:38:31;12.10;99.90
59282;DHT22;45054;52.062;10.010;2023-05-29T02:40:56;12.00;99.90
59282;DHT22;45054;52.062;10.010;2023-05-29T02:43:22;12.00;99.90
59282;DHT22;45054;52.062;10.010;2023-05-29T02:45:47;12.00;99.90
59282;DHT22;45054;52.062;10.010;2023-05-29T02:48:13;11.90;99.90
59282;DHT22;45054;52.062;10.010;2023-05-29T02:50:38;11.80;99.90
59282;DHT22;45054;52.062;10.010;2023-05-29T02:53:05;11.80;99.90
59282;DHT22;45054;52.062;10.010;2023-05-29T02:55:30;11.70;99.90
59282;DHT22;45054;52.062;10.010;2023-05-29T02:57:56;11.80;99.90
59282;DHT22;45054;52.062;10.010;2023-05-29T03:00:21;11.80;99.90
59282;DHT22;45054;52.062;10.010;2023-05-29T03:02:47;11.80;99.90
59282;DHT22;45054;52.062;10.010;2023-05-29T03:05:12;11.80;99.90
59282;DHT22;45054;52.062;10.010;2023-05-29T03:07:37;11.80;99.90
59282;DHT22;45054;52.062;10.010;2023-05-29T03:10:05;11.60;99.90
59282;DHT22;45054;52.062;10.010;2023-05-29T03:12:30;11.60;99.90
59282;DHT22;45054;52.062;10.010;2023-05-29T03:14:55;11.70;99.90
59282;DHT22;45054;52.062;10.010;2023-05-29T03:17:21;11.60;99.90
59282;DHT22;45054;52.062;10.010;2023-05-29T03:19:46;11.60;99.90
59282;DHT22;45054;52.062;10.010;2023-05-29T03:22:12;11.60;99.90
59282;DHT22;45054;52.062;10.010;2023-05-29T03:24:37;11.50;99.90
59282;DHT22;45054;52.062;10.010;2023-05-29T03:27:04;11.50;99.90
59282;DHT22;45054;52.062;10.010;2023-05-29T03:29:31;11.50;99.90
59282;DHT22;45054;52.062;10.010;2023-05-29T03:31:56;11.40;99.90
59282;DHT22;45054;52.062;10.010;2023-05-29T03:34:22;11.40;99.90
59282;DHT22;45054;52.062;10.010;2023-05-29T03:36:47;11.40;99.90
59282;DHT22;45054;52.062;10.010;2023-05-29T03:39:12;11.40;99.90
59282;DHT22;45054;52.062;10.010;2023-05-29T03:41:38;11.50;99.90
59282;DHT22;45054;52.062;10.010;2023-05-29T03:44:05;11.40;99.90
59282;DHT22;45054;52.062;10.010;2023-05-29T03:46:31;11.40;99.90
59282;DHT22;45054;52.062;10.010;2023-05-29T03:48:56;11.40;99.90
59282;DHT22;45054;52.062;10.010;2023-05-29T03:51:22;11.40;99.90
59282;DHT22;45054;52.062;10.010;2023-05-29T03:53:47;11.40;99.90
59282;DHT22;45054;52.062;10.010;2023-05-29T03:56:13;11.40;99.90
59282;DHT22;45054;52.062;10.010;2023-05-29T03:58:38;11.40;99.90
59282;DHT22;45054;52.062;10.010;2023-05-29T04:01:05;11.40;99.90
59282;DHT22;45054;52.062;10.010;2023-05-29T04:03:31;11.40;99.90
59282;DHT22;45054;52.062;10.010;2023-05-29T04:05:56;11.30;99.90
59282;DHT22;45054;52.062;10.010;2023-05-29T04:08:21;11.30;99.90
59282;DHT22;45054;52.062;10.010;2023-05-29T04:10:47;11.30;99.90
59282;DHT22;45054;52.062;10.010;2023-05-29T04:13:12;11.30;99.90
59282;DHT22;45054;52.062;10.010;2023-05-29T04:15:38;11.30;99.90
59282;DHT22;45054;52.062;10.010;2023-05-29T04:18:05;11.30;99.90
59282;DHT22;45054;52.062;10.010;2023-05-29T04:20:30;11.30;99.90
59282;DHT22;45054;52.062;10.010;2023-05-29T04:22:55;11.20;99.90
59282;DHT22;45054;52.062;10.010;2023-05-29T04:25:21;11.30;99.90
59282;DHT22;45054;52.062;10.010;2023-05-29T04:27:47;11.20;99.90
59282;DHT22;45054;52.062;10.010;2023-05-29T04:30:15;11.30;99.90
59282;DHT22;45054;52.062;10.010;2023-05-29T04:32:41;11.20;99.90
59282;DHT22;45054;52.062;10.010;2023-05-29T04:35:08;11.10;99.90
59282;DHT22;45054;52.062;10.010;2023-05-29T04:37:33;11.10;99.90
59282;DHT22;45054;52.062;10.010;2023-05-29T04:39:59;11.10;99.90
59282;DHT22;45054;52.062;10.010;2023-05-29T04:42:24;11.20;99.90
59282;DHT22;45054;52.062;10.010;2023-05-29T04:44:50;11.20;99.90
59282;DHT22;45054;52.062;10.010;2023-05-29T04:47:15;11.20;99.90
59282;DHT22;45054;52.062;10.010;2023-05-29T04:49:41;11.10;99.90
59282;DHT22;45054;52.062;10.010;2023-05-29T04:52:07;11.10;99.90
59282;DHT22;45054;52.062;10.010;2023-05-29T04:54:33;11.10;99.90
59282;DHT22;45054;52.062;10.010;2023-05-29T04:56:59;11.10;99.90
59282;DHT22;45054;52.062;10.010;2023-05-29T04:59:24;11.10;99.90
59282;DHT22;45054;52.062;10.010;2023-05-29T05:01:49;11.20;99.90
59282;DHT22;45054;52.062;10.010;2023-05-29T05:04:15;11.20;99.90
59282;DHT22;45054;52.062;10.010;2023-05-29T05:06:40;11.20;99.90
59282;DHT22;45054;52.062;10.010;2023-05-29T05:09:07;11.10;99.90
59282;DHT22;45054;52.062;10.010;2023-05-29T05:11:32;11.20;99.90
59282;DHT22;45054;52.062;10.010;2023-05-29T05:13:58;11.20;99.90
59282;DHT22;45054;52.062;10.010;2023-05-29T05:16:23;11.30;99.90
59282;DHT22;45054;52.062;10.010;2023-05-29T05:18:49;11.30;99.90
59282;DHT22;45054;52.062;10.010;2023-05-29T05:21:14;11.30;99.90
59282;DHT22;45054;52.062;10.010;2023-05-29T05:23:40;11.30;99.90
59282;DHT22;45054;52.062;10.010;2023-05-29T05:26:07;11.30;99.90
59282;DHT22;45054;52.062;10.010;2023-05-29T05:28:32;11.40;99.90
59282;DHT22;45054;52.062;10.010;2023-05-29T05:30:57;11.40;99.90
59282;DHT22;45054;52.062;10.010;2023-05-29T05:33:23;11.40;99.90
59282;DHT22;45054;52.062;10.010;2023-05-29T05:35:48;11.60;99.90
59282;DHT22;45054;52.062;10.010;2023-05-29T05:38:14;11.60;99.90
59282;DHT22;45054;52.062;10.010;2023-05-29T05:40:39;11.70;99.90
59282;DHT22;45054;52.062;10.010;2023-05-29T05:43:06;11.70;99.90
59282;DHT22;45054;52.062;10.010;2023-05-29T05:45:31;11.80;99.90
59282;DHT22;45054;52.062;10.010;2023-05-29T05:47:57;11.80;99.90
59282;DHT22;45054;52.062;10.010;2023-05-29T05:50:22;11.80;99.90
59282;DHT22;45054;52.062;10.010;2023-05-29T05:52:48;11.90;99.90
59282;DHT22;45054;52.062;10.010;2023-05-29T05:55:13;11.90;99.90
59282;DHT22;45054;52.062;10.010;2023-05-29T05:57:39;11.90;99.90
59282;DHT22;45054;52.062;10.010;2023-05-29T06:00:06;12.00;99.90
59282;DHT22;45054;52.062;10.010;2023-05-29T06:02:31;12.00;99.90
59282;DHT22;45054;52.062;10.010;2023-05-29T06:04:57;12.10;99.90
59282;DHT22;45054;52.062;10.010;2023-05-29T06:07:22;12.10;99.90
59282;DHT22;45054;52.062;10.010;2023-05-29T06:09:48;12.10;99.90
59282;DHT22;45054;52.062;10.010;2023-05-29T06:12:13;12.20;99.90
59282;DHT22;45054;52.062;10.010;2023-05-29T06:14:39;12.10;99.90
59282;DHT22;45054;52.062;10.010;2023-05-29T06:17:05;12.20;99.90
59282;DHT22;45054;52.062;10.010;2023-05-29T06:19:31;12.20;99.90
59282;DHT22;45054;52.062;10.010;2023-05-29T06:21:56;12.30;99.90
59282;DHT22;45054;52.062;10.010;2023-05-29T06:24:22;12.40;99.90
59282;DHT22;45054;52.062;10.010;2023-05-29T06:26:47;12.50;99.90
59282;DHT22;45054;52.062;10.010;2023-05-29T06:29:13;12.60;99.90
59282;DHT22;45054;52.062;10.010;2023-05-29T06:31:38;12.70;99.90
59282;DHT22;45054;52.062;10.010;2023-05-29T06:34:05;12.70;99.90
59282;DHT22;45054;52.062;10.010;2023-05-29T06:36:30;12.90;99.90
59282;DHT22;45054;52.062;10.010;2023-05-29T06:38:56;13.00;99.90
59282;DHT22;45054;52.062;10.010;2023-05-29T06:41:21;12.90;99.90
59282;DHT22;45054;52.062;10.010;2023-05-29T06:43:47;12.90;99.90
59282;DHT22;45054;52.062;10.010;2023-05-29T06:46:12;12.80;99.90
59282;DHT22;45054;52.062;10.010;2023-05-29T06:48:38;12.90;99.90
59282;DHT22;45054;52.062;10.010;2023-05-29T06:51:04;12.90;99.90
59282;DHT22;45054;52.062;10.010;2023-05-29T06:53:30;13.00;99.90
59282;DHT22;45054;52.062;10.010;2023-05-29T06:55:55;13.00;99.90
59282;DHT22;45054;52.062;10.010;2023-05-29T06:58:21;13.10;99.90
59282;DHT22;45054;52.062;10.010;2023-05-29T07:00:46;13.10;99.90
59282;DHT22;45054;52.062;10.010;2023-05-29T07:03:12;13.30;99.90
59282;DHT22;45054;52.062;10.010;2023-05-29T07:05:37;13.20;99.90
59282;DHT22;45054;52.062;10.010;2023-05-29T07:08:04;13.30;99.90
59282;DHT22;45054;52.062;10.010;2023-05-29T07:10:29;13.40;99.90
59282;DHT22;45054;52.062;10.010;2023-05-29T07:12:55;13.40;99.90
59282;DHT22;45054;52.062;10.010;2023-05-29T07:15:20;13.40;99.90
59282;DHT22;45054;52.062;10.010;2023-05-29T07:17:46;13.40;99.90
59282;DHT22;45054;52.062;10.010;2023-05-29T07:20:11;13.50;99.90
59282;DHT22;45054;52.062;10.010;2023-05-29T07:22:37;13.50;99.90
59282;DHT22;45054;52.062;10.010;2023-05-29T07:25:04;13.60;99.90
59282;DHT22;45054;52.062;10.010;2023-05-29T07:27:29;13.50;99.90
59282;DHT22;45054;52.062;10.010;2023-05-29T07:29:55;13.60;99.90
59282;DHT22;45054;52.062;10.010;2023-05-29T07:32:20;13.60;99.90
59282;DHT22;45054;52.062;10.010;2023-05-29T07:34:46;13.60;99.90
59282;DHT22;45054;52.062;10.010;2023-05-29T07:37:11;13.60;99.90
59282;DHT22;45054;52.062;10.010;2023-05-29T07:39:37;13.60;99.90
59282;DHT22;45054;52.062;10.010;2023-05-29T07:42:03;13.80;99.90
59282;DHT22;45054;52.062;10.010;2023-05-29T07:44:29;13.80;99.90
59282;DHT22;45054;52.062;10.010;2023-05-29T07:46:55;13.90;99.90
59282;DHT22;45054;52.062;10.010;2023-05-29T07:49:20;13.90;99.90
59282;DHT22;45054;52.062;10.010;2023-05-29T07:51:46;14.00;99.90
59282;DHT22;45054;52.062;10.010;2023-05-29T07:54:11;14.10;99.90
59282;DHT22;45054;52.062;10.010;2023-05-29T07:56:37;14.20;99.90
59282;DHT22;45054;52.062;10.010;2023-05-29T07:59:03;14.30;99.90
59282;DHT22;45054;52.062;10.010;2023-05-29T08:01:29;14.40;99.90
59282;DHT22;45054;52.062;10.010;2023-05-29T08:03:54;14.40;99.90
59282;DHT22;45054;52.062;10.010;2023-05-29T08:06:20;14.50;99.90
59282;DHT22;45054;52.062;10.010;2023-05-29T08:08:45;14.50;99.90
59282;DHT22;45054;52.062;10.010;2023-05-29T08:11:11;14.50;99.90
59282;DHT22;45054;52.062;10.010;2023-05-29T08:13:36;14.60;99.90
59282;DHT22;45054;52.062;10.010;2023-05-29T08:16:03;14.70;99.90
59282;DHT22;45054;52.062;10.010;2023-05-29T08:18:30;14.70;99.90
59282;DHT22;45054;52.062;10.010;2023-05-29T08:20:56;14.80;99.90
59282;DHT22;45054;52.062;10.010;2023-05-29T08:23:21;14.90;99.90
59282;DHT22;45054;52.062;10.010;2023-05-29T08:25:46;15.10;99.90
59282;DHT22;45054;52.062;10.010;2023-05-29T08:28:12;15.10;99.90
59282;DHT22;45054;52.062;10.010;2023-05-29T08:30:37;15.20;99.90
59282;DHT22;45054;52.062;10.010;2023-05-29T08:33:04;15.30;99.90
59282;DHT22;45054;52.062;10.010;2023-05-29T08:35:30;15.30;99.90
59282;DHT22;45054;52.062;10.010;2023-05-29T08:37:55;15.40;99.90
59282;DHT22;45054;52.062;10.010;2023-05-29T08:40:20;15.30;99.90
59282;DHT22;45054;52.062;10.010;2023-05-29T08:42:46;15.30;99.90
59282;DHT22;45054;52.062;10.010;2023-05-29T08:45:13;15.30;99.90
59282;DHT22;45054;52.062;10.010;2023-05-29T08:47:38;15.30;99.90
59282;DHT22;45054;52.062;10.010;2023-05-29T08:50:07;15.20;99.90
59282;DHT22;45054;52.062;10.010;2023-05-29T08:52:33;15.30;99.90
59282;DHT22;45054;52.062;10.010;2023-05-29T08:54:59;15.50;99.90
59282;DHT22;45054;52.062;10.010;2023-05-29T08:57:26;15.60;99.90
59282;DHT22;45054;52.062;10.010;2023-05-29T08:59:52;15.70;99.90
59282;DHT22;45054;52.062;10.010;2023-05-29T09:02:17;15.80;99.90
59282;DHT22;45054;52.062;10.010;2023-05-29T09:04:43;15.90;99.90
59282;DHT22;45054;52.062;10.010;2023-05-29T09:07:10;15.90;99.90
59282;DHT22;45054;52.062;10.010;2023-05-29T09:09:36;15.90;99.90
59282;DHT22;45054;52.062;10.010;2023-05-29T09:12:01;15.90;99.90
59282;DHT22;45054;52.062;10.010;2023-05-29T09:14:34;16.00;99.90
59282;DHT22;45054;52.062;10.010;2023-05-29T09:16:59;16.00;99.90
59282;DHT22;45054;52.062;10.010;2023-05-29T09:19:25;16.00;99.90
59282;DHT22;45054;52.062;10.010;2023-05-29T09:21:50;16.00;99.90
59282;DHT22;45054;52.062;10.010;2023-05-29T09:24:17;16.00;99.90
59282;DHT22;45054;52.062;10.010;2023-05-29T09:26:48;16.00;99.90
59282;DHT22;45054;52.062;10.010;2023-05-29T09:29:14;16.00;99.90
59282;DHT22;45054;52.062;10.010;2023-05-29T09:31:42;16.20;99.90
59282;DHT22;45054;52.062;10.010;2023-05-29T09:34:10;16.30;99.90
59282;DHT22;45054;52.062;10.010;2023-05-29T09:36:37;16.40;99.90
59282;DHT22;45054;52.062;10.010;2023-05-29T09:39:03;16.60;99.90
59282;DHT22;45054;52.062;10.010;2023-05-29T09:41:29;16.50;99.90
59282;DHT22;45054;52.062;10.010;2023-05-29T09:43:55;16.50;99.90
59282;DHT22;45054;52.062;10.010;2023-05-29T09:46:21;16.40;99.90
59282;DHT22;45054;52.062;10.010;2023-05-29T09:48:46;16.50;99.90
59282;DHT22;45054;52.062;10.010;2023-05-29T09:51:19;16.50;99.90
59282;DHT22;45054;52.062;10.010;2023-05-29T09:53:44;16.50;99.90
59282;DHT22;45054;52.062;10.010;2023-05-29T09:56:10;16.50;99.90
59282;DHT22;45054;52.062;10.010;2023-05-29T09:58:37;16.50;99.90
59282;DHT22;45054;52.062;10.010;2023-05-29T10:01:03;16.60;99.90
59282;DHT22;45054;52.062;10.010;2023-05-29T10:03:29;16.70;99.90
59282;DHT22;45054;52.062;10.010;2023-05-29T10:05:54;16.90;99.90
59282;DHT22;45054;52.062;10.010;2023-05-29T10:08:20;17.00;99.90
59282;DHT22;45054;52.062;10.010;2023-05-29T10:10:46;17.10;99.90
59282;DHT22;45054;52.062;10.010;2023-05-29T10:13:14;17.20;99.90
59282;DHT22;45054;52.062;10.010;2023-05-29T10:15:41;17.30;99.90
59282;DHT22;45054;52.062;10.010;2023-05-29T10:18:10;17.30;99.90
59282;DHT22;45054;52.062;10.010;2023-05-29T10:20:38;17.30;99.90
59282;DHT22;45054;52.062;10.010;2023-05-29T10:23:04;17.30;99.90
59282;DHT22;45054;52.062;10.010;2023-05-29T10:25:30;17.30;99.90
59282;DHT22;45054;52.062;10.010;2023-05-29T10:27:56;17.20;99.90
59282;DHT22;45054;52.062;10.010;2023-05-29T10:30:24;17.30;99.90
59282;DHT22;45054;52.062;10.010;2023-05-29T10:35:38;17.40;99.90
59282;DHT22;45054;52.062;10.010;2023-05-29T10:38:09;17.40;99.90
59282;DHT22;45054;52.062;10.010;2023-05-29T10:40:35;17.40;99.90
59282;DHT22;45054;52.062;10.010;2023-05-29T10:43:02;17.30;99.90
59282;DHT22;45054;52.062;10.010;2023-05-29T10:50:57;17.50;99.90
59282;DHT22;45054;52.062;10.010;2023-05-29T10:53:23;17.60;99.90
59282;DHT22;45054;52.062;10.010;2023-05-29T10:55:49;17.70;99.90
59282;DHT22;45054;52.062;10.010;2023-05-29T10:58:18;17.80;99.90
59282;DHT22;45054;52.062;10.010;2023-05-29T11:00:43;17.80;99.90
59282;DHT22;45054;52.062;10.010;2023-05-29T11:03:10;17.70;99.90
59282;DHT22;45054;52.062;10.010;2023-05-29T11:05:35;17.90;99.90
59282;DHT22;45054;52.062;10.010;2023-05-29T11:08:22;17.90;99.90
59282;DHT22;45054;52.062;10.010;2023-05-29T11:10:56;18.00;99.90
59282;DHT22;45054;52.062;10.010;2023-05-29T11:16:04;18.10;99.90
59282;DHT22;45054;52.062;10.010;2023-05-29T11:18:29;18.10;99.90
59282;DHT22;45054;52.062;10.010;2023-05-29T11:20:56;18.20;99.90
59282;DHT22;45054;52.062;10.010;2023-05-29T11:23:24;18.20;99.90
59282;DHT22;45054;52.062;10.010;2023-05-29T11:25:56;18.10;99.90
59282;DHT22;45054;52.062;10.010;2023-05-29T11:28:21;18.30;99.90
59282;DHT22;45054;52.062;10.010;2023-05-29T11:30:47;18.30;99.90
59282;DHT22;45054;52.062;10.010;2023-05-29T11:33:16;18.40;99.90
59282;DHT22;45054;52.062;10.010;2023-05-29T11:35:44;18.30;99.90
59282;DHT22;45054;52.062;10.010;2023-05-29T11:38:11;18.40;99.90
59282;DHT22;45054;52.062;10.010;2023-05-29T11:40:38;18.60;99.90
59282;DHT22;45054;52.062;10.010;2023-05-29T11:43:03;18.60;99.90
59282;DHT22;45054;52.062;10.010;2023-05-29T11:45:31;18.50;99.90
59282;DHT22;45054;52.062;10.010;2023-05-29T11:47:57;18.50;99.90
59282;DHT22;45054;52.062;10.010;2023-05-29T11:50:23;18.50;99.90
59282;DHT22;45054;52.062;10.010;2023-05-29T11:52:49;18.60;99.90
59282;DHT22;45054;52.062;10.010;2023-05-29T11:55:15;18.60;99.90
59282;DHT22;45054;52.062;10.010;2023-05-29T11:57:41;18.70;99.90
59282;DHT22;45054;52.062;10.010;2023-05-29T12:00:07;18.60;99.90
59282;DHT22;45054;52.062;10.010;2023-05-29T12:02:33;18.60;99.90
59282;DHT22;45054;52.062;10.010;2023-05-29T12:05:01;18.70;99.90
59282;DHT22;45054;52.062;10.010;2023-05-29T12:07:26;18.80;99.90
59282;DHT22;45054;52.062;10.010;2023-05-29T12:09:52;18.80;99.90
59282;DHT22;45054;52.062;10.010;2023-05-29T12:12:17;18.80;99.90
59282;DHT22;45054;52.062;10.010;2023-05-29T12:14:44;18.90;99.90
59282;DHT22;45054;52.062;10.010;2023-05-29T12:17:09;19.00;99.90
59282;DHT22;45054;52.062;10.010;2023-05-29T12:19:35;19.00;99.90
59282;DHT22;45054;52.062;10.010;2023-05-29T12:22:00;19.00;99.90
59282;DHT22;45054;52.062;10.010;2023-05-29T12:24:26;19.10;99.90
59282;DHT22;45054;52.062;10.010;2023-05-29T12:26:51;19.20;99.90
59282;DHT22;45054;52.062;10.010;2023-05-29T12:29:17;19.20;99.90
59282;DHT22;45054;52.062;10.010;2023-05-29T12:31:44;19.30;99.90
59282;DHT22;45054;52.062;10.010;2023-05-29T12:34:10;19.30;99.90
59282;DHT22;45054;52.062;10.010;2023-05-29T12:36:36;19.30;99.90
59282;DHT22;45054;52.062;10.010;2023-05-29T12:39:05;19.40;99.90
59282;DHT22;45054;52.062;10.010;2023-05-29T12:41:33;19.50;99.90
59282;DHT22;45054;52.062;10.010;2023-05-29T12:44:00;19.50;99.90
59282;DHT22;45054;52.062;10.010;2023-05-29T12:46:26;19.50;99.90
59282;DHT22;45054;52.062;10.010;2023-05-29T12:48:54;19.70;99.90
59282;DHT22;45054;52.062;10.010;2023-05-29T12:51:23;19.70;99.90
59282;DHT22;45054;52.062;10.010;2023-05-29T12:53:48;19.80;99.90
59282;DHT22;45054;52.062;10.010;2023-05-29T12:56:14;19.90;99.90
59282;DHT22;45054;52.062;10.010;2023-05-29T12:58:39;19.80;99.90
59282;DHT22;45054;52.062;10.010;2023-05-29T13:01:05;19.80;99.90
59282;DHT22;45054;52.062;10.010;2023-05-29T13:03:37;19.90;99.90
59282;DHT22;45054;52.062;10.010;2023-05-29T13:06:04;19.90;99.90
59282;DHT22;45054;52.062;10.010;2023-05-29T13:08:29;20.00;99.90
59282;DHT22;45054;52.062;10.010;2023-05-29T13:10:55;20.10;99.90
59282;DHT22;45054;52.062;10.010;2023-05-29T13:13:20;20.30;99.90
59282;DHT22;45054;52.062;10.010;2023-05-29T13:15:46;20.40;99.90
59282;DHT22;45054;52.062;10.010;2023-05-29T13:18:11;20.30;99.90
59282;DHT22;45054;52.062;10.010;2023-05-29T13:20:36;20.30;99.90
59282;DHT22;45054;52.062;10.010;2023-05-29T13:23:03;20.20;99.90
59282;DHT22;45054;52.062;10.010;2023-05-29T13:25:29;20.40;99.90
59282;DHT22;45054;52.062;10.010;2023-05-29T13:27:54;20.40;99.90
59282;DHT22;45054;52.062;10.010;2023-05-29T13:30:20;20.70;99.90
59282;DHT22;45054;52.062;10.010;2023-05-29T13:32:45;20.80;99.90
59282;DHT22;45054;52.062;10.010;2023-05-29T13:35:10;20.50;99.90
59282;DHT22;45054;52.062;10.010;2023-05-29T13:37:36;20.40;99.90
59282;DHT22;45054;52.062;10.010;2023-05-29T13:40:03;20.50;99.90
59282;DHT22;45054;52.062;10.010;2023-05-29T13:42:29;20.30;99.90
59282;DHT22;45054;52.062;10.010;2023-05-29T13:44:54;20.20;99.90
59282;DHT22;45054;52.062;10.010;2023-05-29T13:47:20;20.20;99.90
59282;DHT22;45054;52.062;10.010;2023-05-29T13:49:45;20.40;99.90
59282;DHT22;45054;52.062;10.010;2023-05-29T13:52:11;20.40;99.90
59282;DHT22;45054;52.062;10.010;2023-05-29T13:54:36;20.30;99.90
59282;DHT22;45054;52.062;10.010;2023-05-29T13:57:03;20.50;99.90
59282;DHT22;45054;52.062;10.010;2023-05-29T13:59:29;20.70;99.90
59282;DHT22;45054;52.062;10.010;2023-05-29T14:01:55;21.00;99.90
59282;DHT22;45054;52.062;10.010;2023-05-29T14:04:21;21.30;99.90
59282;DHT22;45054;52.062;10.010;2023-05-29T14:06:46;21.50;99.90
59282;DHT22;45054;52.062;10.010;2023-05-29T14:09:11;21.70;99.90
59282;DHT22;45054;52.062;10.010;2023-05-29T14:11:37;21.50;99.90
59282;DHT22;45054;52.062;10.010;2023-05-29T14:14:04;21.40;99.90
59282;DHT22;45054;52.062;10.010;2023-05-29T14:16:29;21.50;99.90
59282;DHT22;45054;52.062;10.010;2023-05-29T14:18:55;21.80;99.90
59282;DHT22;45054;52.062;10.010;2023-05-29T14:21:20;21.20;99.90
59282;DHT22;45054;52.062;10.010;2023-05-29T14:23:46;20.90;99.90
59282;DHT22;45054;52.062;10.010;2023-05-29T14:26:11;21.00;99.90
59282;DHT22;45054;52.062;10.010;2023-05-29T14:28:37;21.10;99.90
59282;DHT22;45054;52.062;10.010;2023-05-29T14:31:04;21.20;99.90
59282;DHT22;45054;52.062;10.010;2023-05-29T14:33:29;21.40;99.90
59282;DHT22;45054;52.062;10.010;2023-05-29T14:35:55;21.40;99.90
59282;DHT22;45054;52.062;10.010;2023-05-29T14:38:20;21.50;99.90
59282;DHT22;45054;52.062;10.010;2023-05-29T14:40:46;21.50;99.90
59282;DHT22;45054;52.062;10.010;2023-05-29T14:43:11;21.50;99.90
59282;DHT22;45054;52.062;10.010;2023-05-29T14:45:36;21.80;99.90
59282;DHT22;45054;52.062;10.010;2023-05-29T14:48:03;22.00;99.90
59282;DHT22;45054;52.062;10.010;2023-05-29T14:50:29;22.10;99.90
59282;DHT22;45054;52.062;10.010;2023-05-29T14:52:54;22.30;99.90
59282;DHT22;45054;52.062;10.010;2023-05-29T14:55:20;22.10;99.90
59282;DHT22;45054;52.062;10.010;2023-05-29T14:57:45;22.30;99.90
59282;DHT22;45054;52.062;10.010;2023-05-29T15:00:11;22.30;99.90
59282;DHT22;45054;52.062;10.010;2023-05-29T15:02:36;22.60;99.90
59282;DHT22;45054;52.062;10.010;2023-05-29T15:05:03;22.50;99.90
59282;DHT22;45054;52.062;10.010;2023-05-29T15:07:29;22.30;99.90
59282;DHT22;45054;52.062;10.010;2023-05-29T15:09:54;22.70;99.90
59282;DHT22;45054;52.062;10.010;2023-05-29T15:12:20;23.00;99.90
59282;DHT22;45054;52.062;10.010;2023-05-29T15:14:45;23.00;99.90
59282;DHT22;45054;52.062;10.010;2023-05-29T15:17:11;23.30;99.90
59282;DHT22;45054;52.062;10.010;2023-05-29T15:19:36;23.50;99.90